ADDS METAR Data INFO
IDs: Format: Raw Decoded Include TAF

Data at: 0932 UTC 11 Dec 2017

KMIW 110853Z AUTO 16006KT 10SM SCT120 00/M04 A2993 RMK AO2 SLP142 T00001044 58028
KMIW 110753Z AUTO 17005KT 10SM CLR M01/M05 A2997 RMK AO2 SLP155 T10061050
KMIW 110653Z AUTO 16005KT 10SM CLR M01/M05 A2998 RMK AO2 SLP161 T10061050
KMIW 110553Z AUTO 15005KT 10SM CLR 00/M05 A3001 RMK AO2 SLP171 T00001050 10000 21022 400501061 56016
KMIW 110453Z AUTO 15005KT 10SM CLR 00/M05 A3002 RMK AO2 SLP174 T00001050
KMIW 110353Z AUTO 15004KT 10SM OVC090 M01/M06 A3005 RMK AO2 SLP184 T10061056
KMIW 110253Z AUTO 00000KT 10SM OVC100 M01/M06 A3006 RMK AO2 SLP190 T10061056 58001
KMIW 110153Z AUTO 31004KT 10SM OVC110 M01/M05 A3008 RMK AO2 SLP196 T10061050
KMIW 110053Z AUTO 28004KT 10SM OVC100 M02/M07 A3007 RMK AO2 SLP196 T10171067
KMIW 102353Z AUTO 32007KT 10SM CLR M01/M06 A3007 RMK AO2 SLP193 T10111061 10050 21017 51016
KMIW 102253Z AUTO 33008KT 10SM CLR 02/M05 A3005 RMK AO2 SLP188 T00171050
KMIW 102153Z AUTO 32012KT 10SM CLR 04/M04 A3004 RMK AO2 SLP182 T00441044
KMIW 102053Z AUTO 31013KT 10SM CLR 05/M04 A3002 RMK AO2 SLP175 T00501044 53007
KMIW 101953Z AUTO 32013KT 10SM CLR 04/M04 A3001 RMK AO2 SLP171 T00441044
KMIW 101853Z AUTO 31014KT 10SM CLR 04/M04 A3000 RMK AO2 SLP168 T00441044
KMIW 101753Z AUTO 30015KT 10SM CLR 04/M04 A3000 RMK AO2 SLP168 T00391039 10039 21033 51019
KMIW 101653Z AUTO 33013G21KT 10SM CLR 03/M04 A2999 RMK AO2 PK WND 32026/1557 SLP168 T00281039
KMIW 101553Z AUTO 32017G25KT 10SM FEW110 02/M04 A2997 RMK AO2 SLP163 T00171039
KMIW 101453Z AUTO 30013KT 10SM FEW120 00/M04 A2994 RMK AO2 SLP151 T00001039 51018
KMIW 101353Z AUTO 30012KT 10SM CLR M02/M04 A2993 RMK AO2 SLP149 T10171044
KMIW 101253Z AUTO 29010KT 10SM CLR M02/M06 A2991 RMK AO2 SLP142 T10221056
KMIW 101153Z AUTO 29011KT 10SM CLR M03/M06 A2989 RMK AO2 SLP133 T10281061 11028 21061 55005
KMIW 101053Z AUTO 25008KT 10SM CLR M06/M08 A2987 RMK AO2 SLP130 T10561078
KMIW 100953Z AUTO 22006KT 10SM CLR M06/M08 A2989 RMK AO2 SLP134 T10561083
KMIW 100853Z AUTO 21007KT 10SM CLR M06/M08 A2990 RMK AO2 SLP138 T10561083 56030
KMIW 100753Z AUTO 19008KT 10SM CLR M05/M08 A2993 RMK AO2 SLP147 T10501083
KMIW 100653Z AUTO 21013KT 10SM CLR M04/M08 A2994 RMK AO2 SLP152 T10391083
KMIW 100553Z AUTO 19008KT 10SM BKN110 M06/M09 A2999 RMK AO2 SLP170 T10611094 11056 21089 410171089 58025
KMIW 100453Z AUTO 21005KT 10SM SCT120 M07/M11 A3005 RMK AO2 SLP189 T10721106
KMIW 100353Z AUTO 17004KT 10SM FEW110 M08/M12 A3006 RMK AO2 SLP195 T10831117
KMIW 100253Z AUTO 20006KT 10SM CLR M08/M12 A3007 RMK AO2 SLP197 T10831117 58019
KMIW 100153Z AUTO 22005KT 10SM CLR M08/M12 A3010 RMK AO2 SLP210 T10781117
KMIW 100053Z AUTO 28004KT 10SM CLR M08/M12 A3012 RMK AO2 SLP214 T10831122
KMIW 092353Z AUTO 29007KT 10SM CLR M07/M11 A3013 RMK AO2 SLP217 T10671111 11022 21072 51009
KMIW 092253Z AUTO 30008KT 10SM CLR M05/M11 A3012 RMK AO2 SLP214 T10501106
KMIW 092153Z AUTO 31014KT 10SM CLR M03/M11 A3012 RMK AO2 SLP210 T10331106